Time;durP1;ratioP1;P1;durP2;ratioP2;P2;SDS_P1;SDS_P2;PMS_P1;PMS_P2;Temp;Humidity;BMP_temperature;BMP_pressure;BME280_temperature;BME280_humidity;BME280_pressure;Samples;Min_cycle;Max_cycle;Signal;HPM_P1;HPM_P2
2021/05/27 00:00:20;;;;;;;0.20;0.20;;;;;;;9.25;55.55;98542.97;5052756;28;20382;-64
2021/05/27 00:02:46;;;;;;;0.52;0.52;;;;;;;9.21;55.65;98549.16;5052735;28;20033;-62
2021/05/27 00:05:14;;;;;;;1.48;1.30;;;;;;;9.20;55.66;98547.47;5052343;28;20028;-62
2021/05/27 00:07:40;;;;;;;0.20;0.20;;;;;;;9.24;55.57;98545.94;5052286;28;20043;-62
2021/05/27 00:10:08;;;;;;;0.20;0.20;;;;;;;9.25;55.45;98536.66;5052554;28;20033;-63
2021/05/27 00:12:34;;;;;;;0.30;0.30;;;;;;;9.25;55.37;98544.88;5052669;28;20060;-63
2021/05/27 00:15:01;;;;;;;0.10;0.10;;;;;;;9.27;55.37;98554.53;5052857;28;20447;-62
2021/05/27 00:17:27;;;;;;;0.20;0.20;;;;;;;9.26;55.48;98557.50;5052263;28;20081;-62
2021/05/27 00:19:53;;;;;;;0.10;0.10;;;;;;;9.21;55.69;98562.84;5052650;28;20033;-64
2021/05/27 00:22:19;;;;;;;0.30;0.30;;;;;;;9.22;55.50;98551.66;5052657;28;20029;-64
2021/05/27 00:24:44;;;;;;;0.10;0.10;;;;;;;9.25;55.54;98562.16;5052483;28;20033;-65
2021/05/27 00:27:10;;;;;;;0.15;0.15;;;;;;;9.27;55.38;98564.66;5051987;28;20075;-65
2021/05/27 00:29:36;;;;;;;0.10;0.10;;;;;;;9.27;55.51;98570.13;5051961;28;20036;-64
2021/05/27 00:32:02;;;;;;;0.47;0.47;;;;;;;9.30;55.31;98572.41;5052453;28;20080;-66
2021/05/27 00:34:27;;;;;;;0.10;0.10;;;;;;;9.36;55.36;98574.22;5052198;28;20032;-67
2021/05/27 00:36:53;;;;;;;0.73;0.73;;;;;;;9.42;55.19;98580.66;5052547;28;20032;-67
2021/05/27 00:39:19;;;;;;;0.30;0.30;;;;;;;9.51;55.03;98581.19;5052635;28;20394;-68
2021/05/27 00:41:45;;;;;;;0.25;0.25;;;;;;;9.56;54.80;98573.94;5052481;28;20029;-68
2021/05/27 00:44:29;;;;;;;0.20;0.20;;;;;;;9.65;54.65;98577.16;5034195;28;20051;-67
2021/05/27 00:46:57;;;;;;;0.55;0.55;;;;;;;9.73;54.41;98584.22;5034900;28;20121;-66
2021/05/27 00:49:23;;;;;;;0.47;0.47;;;;;;;9.73;54.63;98582.31;5052310;28;20494;-66
2021/05/27 00:51:50;;;;;;;0.20;0.20;;;;;;;9.76;54.70;98589.22;5052032;28;20510;-62
2021/05/27 00:54:17;;;;;;;0.13;0.13;;;;;;;9.73;54.79;98584.22;5052180;28;20040;-65
2021/05/27 00:56:43;;;;;;;0.20;0.20;;;;;;;9.76;54.79;98598.31;5052311;28;20386;-63
2021/05/27 00:59:09;;;;;;;0.10;0.10;;;;;;;9.80;54.78;98601.41;5053312;28;20033;-63
2021/05/27 01:01:36;;;;;;;0.30;0.30;;;;;;;9.77;54.74;98599.13;5055758;28;20032;-63
2021/05/27 01:04:03;;;;;;;0.20;0.20;;;;;;;9.76;54.77;98602.94;5055731;28;20033;-63
2021/05/27 01:06:29;;;;;;;0.47;0.47;;;;;;;9.76;54.64;98603.78;5056124;28;20025;-62
2021/05/27 01:08:56;;;;;;;0.28;0.28;;;;;;;9.76;54.70;98606.53;5055591;28;20075;-62
2021/05/27 01:11:22;;;;;;;0.30;0.30;;;;;;;9.81;54.56;98614.88;5055637;28;20041;-63
2021/05/27 01:13:49;;;;;;;0.10;0.10;;;;;;;9.86;54.51;98614.16;5055830;28;20040;-63
2021/05/27 01:16:20;;;;;;;0.30;0.30;;;;;;;9.97;54.45;98612.53;5055496;28;20147;-61
2021/05/27 01:18:46;;;;;;;0.17;0.17;;;;;;;10.11;54.06;98615.88;5055367;28;20029;-62
2021/05/27 01:21:12;;;;;;;0.20;0.20;;;;;;;10.19;53.84;98621.03;5055484;28;20025;-62
2021/05/27 01:23:39;;;;;;;0.10;0.10;;;;;;;10.21;53.85;98626.28;5055199;28;20036;-61
2021/05/27 01:26:09;;;;;;;0.10;0.10;;;;;;;10.25;53.87;98627.47;5055066;28;20398;-62
2021/05/27 01:28:35;;;;;;;0.20;0.20;;;;;;;10.24;53.96;98634.03;5055358;28;20183;-63
2021/05/27 01:31:03;;;;;;;0.43;0.43;;;;;;;10.18;54.11;98647.63;5055251;28;20044;-62
2021/05/27 01:33:29;;;;;;;0.10;0.10;;;;;;;10.10;54.37;98647.13;5037504;28;20029;-63
2021/05/27 01:35:56;;;;;;;0.10;0.10;;;;;;;10.08;54.27;98644.63;5055486;28;20107;-60
2021/05/27 01:38:24;;;;;;;0.20;0.20;;;;;;;10.08;54.34;98646.53;5055374;28;20036;-60
2021/05/27 01:40:52;;;;;;;0.20;0.20;;;;;;;10.09;54.20;98650.97;5055057;28;20033;-61
2021/05/27 01:43:20;;;;;;;0.20;0.20;;;;;;;10.05;54.41;98652.50;5054909;28;20433;-61
2021/05/27 01:45:46;;;;;;;0.20;0.20;;;;;;;10.05;54.32;98669.78;5054577;28;20033;-61
2021/05/27 01:48:12;;;;;;;0.25;0.25;;;;;;;10.10;54.27;98661.69;5054676;28;20032;-61
2021/05/27 01:50:44;;;;;;;0.20;0.20;;;;;;;10.16;54.00;98666.22;5054851;28;20029;-63
2021/05/27 01:53:10;;;;;;;0.10;0.10;;;;;;;10.25;53.93;98671.38;5055083;28;20041;-64
2021/05/27 01:55:41;;;;;;;0.20;0.20;;;;;;;10.42;53.50;98677.03;5054420;28;20037;-65
2021/05/27 01:58:08;;;;;;;0.20;0.20;;;;;;;10.52;53.35;98664.38;5054619;28;20025;-64
2021/05/27 02:00:34;;;;;;;0.20;0.20;;;;;;;10.49;53.22;98686.81;5036930;28;20037;-63
2021/05/27 02:03:00;;;;;;;0.40;0.40;;;;;;;10.55;53.15;98689.72;5054784;28;20020;-67
2021/05/27 02:05:25;;;;;;;0.32;0.32;;;;;;;10.68;52.91;98689.47;5036695;28;20093;-60
2021/05/27 02:07:51;;;;;;;0.20;0.20;;;;;;;10.76;52.77;98697.38;5036490;28;20048;-62
2021/05/27 02:10:17;;;;;;;0.10;0.10;;;;;;;10.72;53.04;98696.16;5054111;28;20453;-65
2021/05/27 02:12:43;;;;;;;0.15;0.15;;;;;;;10.72;53.13;98704.41;5054380;28;20037;-64
2021/05/27 02:15:10;;;;;;;0.10;0.10;;;;;;;10.80;52.93;98706.78;5053989;28;20406;-64
2021/05/27 02:17:36;;;;;;;0.10;0.10;;;;;;;10.86;52.61;98703.09;5054420;28;20106;-63
2021/05/27 02:20:05;;;;;;;0.10;0.10;;;;;;;11.07;52.39;98702.69;5054147;28;20029;-63
2021/05/27 02:22:30;;;;;;;0.10;0.10;;;;;;;11.17;52.23;98708.41;5054203;28;20509;-64
2021/05/27 02:24:56;;;;;;;0.10;0.10;;;;;;;11.20;52.03;98714.28;5054386;28;20071;-63
2021/05/27 02:27:22;;;;;;;0.10;0.10;;;;;;;11.27;51.89;98718.81;5043293;28;20060;-63
2021/05/27 02:29:49;;;;;;;0.10;0.10;;;;;;;11.34;51.93;98722.28;5053967;28;20025;-64
2021/05/27 02:32:14;;;;;;;0.32;0.32;;;;;;;11.35;52.01;98721.16;5054136;28;20067;-63
2021/05/27 02:34:40;;;;;;;0.10;0.10;;;;;;;11.35;51.87;98729.41;5052454;28;20071;-65
2021/05/27 02:37:06;;;;;;;0.20;0.20;;;;;;;11.38;52.10;98726.19;5054017;28;20033;-63
2021/05/27 02:39:32;;;;;;;0.20;0.20;;;;;;;11.32;52.06;98722.50;5054168;28;20025;-63
2021/05/27 02:41:58;;;;;;;0.10;0.10;;;;;;;11.22;52.41;98722.28;5054064;28;20033;-64
2021/05/27 02:44:24;;;;;;;0.10;0.10;;;;;;;11.10;52.84;98726.94;5053810;28;20503;-63
2021/05/27 02:46:50;;;;;;;0.10;0.10;;;;;;;11.04;52.79;98731.47;5054176;28;20028;-64
2021/05/27 02:49:16;;;;;;;0.10;0.10;;;;;;;11.05;53.04;98730.41;5052912;28;20102;-63
2021/05/27 02:51:41;;;;;;;0.10;0.10;;;;;;;11.11;52.73;98739.63;5052397;28;20029;-64
2021/05/27 02:54:07;;;;;;;0.10;0.10;;;;;;;11.19;52.55;98745.59;5052211;28;20040;-64
2021/05/27 02:56:33;;;;;;;0.10;0.10;;;;;;;11.35;52.25;98749.50;5053370;28;20150;-63
2021/05/27 02:58:58;;;;;;;0.35;0.35;;;;;;;11.66;51.40;98741.91;5053981;28;20406;-64
2021/05/27 03:01:24;;;;;;;0.10;0.10;;;;;;;11.95;51.06;98741.13;5053607;28;20481;-64
2021/05/27 03:03:50;;;;;;;0.10;0.10;;;;;;;12.08;50.77;98733.38;5053972;28;20086;-65
2021/05/27 03:06:16;;;;;;;0.13;0.13;;;;;;;12.16;50.73;98754.19;5052003;28;20039;-64
2021/05/27 03:08:42;;;;;;;0.10;0.10;;;;;;;12.21;50.63;98747.94;5053461;28;20119;-64
2021/05/27 03:11:09;;;;;;;0.10;0.10;;;;;;;12.20;50.57;98749.84;5053418;28;20040;-65
2021/05/27 03:13:35;;;;;;;0.10;0.10;;;;;;;12.18;50.93;98746.50;5053082;28;20111;-63
2021/05/27 03:16:02;;;;;;;0.30;0.30;;;;;;;12.26;50.74;98748.88;5053673;28;20143;-63
2021/05/27 03:18:30;;;;;;;0.10;0.10;;;;;;;12.27;50.74;98747.78;5053161;28;20040;-64
2021/05/27 03:21:00;;;;;;;0.10;0.10;;;;;;;12.36;50.43;98755.66;5052921;28;20029;-64
2021/05/27 03:23:26;;;;;;;0.10;0.10;;;;;;;12.51;50.06;98755.91;5052904;28;20032;-64
2021/05/27 03:25:52;;;;;;;0.13;0.13;;;;;;;12.66;49.94;98760.00;5051865;28;20067;-63
2021/05/27 03:28:18;;;;;;;0.10;0.10;;;;;;;12.83;49.51;98758.09;5052830;28;20545;-63
2021/05/27 03:30:43;;;;;;;0.20;0.20;;;;;;;12.98;49.25;98774.03;5052555;28;20506;-63
2021/05/27 03:33:10;;;;;;;0.10;0.10;;;;;;;12.98;49.29;98771.28;5034160;28;20123;-62
2021/05/27 03:35:35;;;;;;;0.10;0.10;;;;;;;12.94;49.69;98770.94;5052118;28;20116;-62
2021/05/27 03:38:02;;;;;;;0.30;0.30;;;;;;;13.02;49.57;98777.13;5052393;28;20504;-64
2021/05/27 03:40:27;;;;;;;0.10;0.10;;;;;;;13.08;49.31;98776.94;5052361;28;20039;-64
2021/05/27 03:42:55;;;;;;;0.10;0.10;;;;;;;13.19;49.36;98775.19;5051724;28;20115;-64
2021/05/27 03:45:25;;;;;;;0.47;0.47;;;;;;;13.40;48.83;98772.75;5052187;28;20029;-64
2021/05/27 03:47:51;;;;;;;0.10;0.10;;;;;;;13.56;48.60;98771.88;5033871;28;20036;-63
2021/05/27 03:50:19;;;;;;;0.20;0.20;;;;;;;13.60;48.48;98778.56;5052089;28;20029;-63
2021/05/27 03:52:45;;;;;;;0.10;0.10;;;;;;;13.93;48.10;98781.44;5051923;28;20039;-64
2021/05/27 03:55:14;;;;;;;0.40;0.40;;;;;;;14.20;47.64;98775.94;5052194;28;20457;-63
2021/05/27 03:57:40;;;;;;;0.17;0.17;;;;;;;14.38;47.51;98785.78;5051591;28;20037;-64
2021/05/27 04:02:57;;;;;;;0.20;0.20;;;;;;;15.09;46.23;98782.06;5052238;28;20134;-64
2021/05/27 04:08:07;;;;;;;0.70;0.70;;;;;;;14.58;47.54;98776.88;5051760;28;20524;-63
2021/05/27 04:10:34;;;;;;;0.10;0.10;;;;;;;14.27;48.28;98771.06;5051845;28;20087;-65
2021/05/27 04:13:00;;;;;;;0.45;0.43;;;;;;;14.29;48.50;98776.31;5051384;28;20115;-65
2021/05/27 04:15:29;;;;;;;0.10;0.10;;;;;;;14.35;48.34;98770.59;5051836;28;20401;-63
2021/05/27 04:18:16;;;;;;;0.30;0.30;;;;;;;14.33;48.30;98764.47;5051563;28;20029;-64
2021/05/27 04:20:48;;;;;;;0.43;0.43;;;;;;;14.26;48.44;98777.66;5036537;28;20109;-64
2021/05/27 04:23:33;;;;;;;1.38;0.45;;;;;;;14.34;48.21;98777.22;5051562;28;20398;-63
2021/05/27 04:26:00;;;;;;;0.85;0.85;;;;;;;14.53;47.97;98783.19;5052025;28;20148;-63
2021/05/27 04:28:25;;;;;;;0.10;0.10;;;;;;;14.59;47.61;98789.63;4990205;28;1763238;-63
2021/05/27 04:31:10;;;;;;;0.20;0.20;;;;;;;14.42;48.31;98791.66;5033776;28;20036;-63
2021/05/27 04:33:56;;;;;;;0.10;0.10;;;;;;;14.09;48.76;98796.25;5052564;28;20039;-63
2021/05/27 04:36:23;;;;;;;0.10;0.10;;;;;;;13.90;49.32;98792.97;5038071;28;20069;-63
2021/05/27 04:38:50;;;;;;;0.10;0.10;;;;;;;13.75;49.35;98796.38;5056582;28;20029;-63
2021/05/27 04:41:17;;;;;;;0.13;0.13;;;;;;;13.57;49.72;98803.88;5021569;28;20029;-64
2021/05/27 04:43:46;;;;;;;0.10;0.10;;;;;;;13.46;50.10;98810.34;5056127;28;20040;-64
2021/05/27 04:46:11;;;;;;;0.20;0.20;;;;;;;13.38;50.23;98817.13;5055847;28;20098;-63
2021/05/27 04:48:38;;;;;;;0.40;0.40;;;;;;;13.43;50.09;98800.66;5056257;28;20033;-63
2021/05/27 04:51:04;;;;;;;0.20;0.20;;;;;;;13.57;49.85;98811.31;5055592;28;20116;-64
2021/05/27 04:53:30;;;;;;;0.25;0.25;;;;;;;13.83;49.15;98810.56;5055965;28;20079;-64
2021/05/27 04:55:57;;;;;;;0.13;0.13;;;;;;;14.00;48.78;98804.16;5037700;28;20037;-63
2021/05/27 04:58:23;;;;;;;0.10;0.10;;;;;;;14.02;48.80;98808.31;5056175;28;20382;-64
2021/05/27 05:00:50;;;;;;;0.10;0.10;;;;;;;13.94;48.71;98806.03;5037574;28;20083;-64
2021/05/27 05:03:17;;;;;;;0.10;0.10;;;;;;;13.80;48.97;98804.75;5056141;28;20433;-65
2021/05/27 05:05:44;;;;;;;0.10;0.10;;;;;;;13.72;49.54;98805.19;5038131;28;20091;-65
2021/05/27 05:08:09;;;;;;;0.10;0.10;;;;;;;13.78;49.39;98806.91;5055937;28;20387;-65
2021/05/27 05:10:37;;;;;;;0.10;0.10;;;;;;;13.79;48.97;98803.06;5055753;28;20115;-65
2021/05/27 05:13:04;;;;;;;0.20;0.20;;;;;;;13.76;49.24;98800.81;5055730;28;20029;-65
2021/05/27 05:15:32;;;;;;;0.10;0.10;;;;;;;13.81;48.75;98806.44;5055603;28;20036;-65
2021/05/27 05:18:06;;;;;;;0.20;0.20;;;;;;;13.82;49.05;98794.28;5055358;28;20379;-64
2021/05/27 05:20:42;;;;;;;;;;;;;;;13.85;48.80;98802.03;5037816;28;20036;-64
2021/05/27 05:23:10;;;;;;;0.20;0.20;;;;;;;13.83;48.70;98802.28;5055476;28;19956;-63
2021/05/27 05:25:37;;;;;;;0.10;0.10;;;;;;;13.86;48.74;98803.72;5055373;28;20044;-64
2021/05/27 05:28:04;;;;;;;0.10;0.10;;;;;;;14.02;48.38;98807.50;5054965;28;20156;-64
2021/05/27 05:30:30;;;;;;;0.10;0.10;;;;;;;14.21;48.08;98816.28;5055022;28;20045;-64
2021/05/27 05:32:57;;;;;;;0.20;0.20;;;;;;;14.43;47.45;98802.44;5055203;28;20116;-64
2021/05/27 05:35:24;;;;;;;0.10;0.10;;;;;;;14.61;47.40;98805.94;5037083;28;20040;-63
2021/05/27 05:37:52;;;;;;;0.10;0.10;;;;;;;14.64;47.27;98809.03;5055147;28;20444;-64
2021/05/27 05:40:21;;;;;;;0.10;0.10;;;;;;;14.63;47.26;98810.09;5054998;28;20033;-64
2021/05/27 05:42:47;;;;;;;0.20;0.20;;;;;;;14.56;47.72;98820.53;5054936;28;20138;-63
2021/05/27 05:45:15;;;;;;;0.10;0.10;;;;;;;14.55;47.60;98807.81;5055025;28;20033;-64
2021/05/27 05:47:43;;;;;;;0.30;0.30;;;;;;;14.59;47.59;98814.47;5054673;28;20059;-65
2021/05/27 05:50:09;;;;;;;0.10;0.10;;;;;;;14.77;47.35;98806.94;5054882;28;20091;-64
2021/05/27 05:52:36;;;;;;;0.13;0.13;;;;;;;15.20;46.58;98799.53;5036814;28;20029;-64
2021/05/27 05:55:03;;;;;;;0.10;0.10;;;;;;;15.69;45.50;98801.22;5053506;28;20056;-64
2021/05/27 05:57:29;;;;;;;0.38;0.38;;;;;;;16.07;44.94;98797.25;5053045;28;20033;-65
2021/05/27 05:59:54;;;;;;;0.10;0.10;;;;;;;16.30;44.67;98806.22;5032696;28;20029;-64
2021/05/27 06:02:20;;;;;;;0.10;0.10;;;;;;;16.34;44.93;98807.34;5053063;28;20021;-64
2021/05/27 06:04:46;;;;;;;0.20;0.20;;;;;;;16.28;44.94;98802.88;5053183;28;20647;-63
2021/05/27 06:07:12;;;;;;;0.30;0.30;;;;;;;16.20;45.33;98806.19;5052533;28;20047;-64
2021/05/27 06:09:38;;;;;;;0.35;0.30;;;;;;;16.03;45.69;98809.16;5053105;28;20576;-63
2021/05/27 06:12:04;;;;;;;0.40;0.40;;;;;;;15.71;46.55;98807.34;5052984;28;20056;-63
2021/05/27 06:14:32;;;;;;;0.10;0.10;;;;;;;15.42;47.19;98805.75;5052772;28;20035;-64
2021/05/27 06:16:58;;;;;;;0.10;0.10;;;;;;;15.36;47.10;98804.06;5052629;28;20536;-64
2021/05/27 06:19:24;;;;;;;0.38;0.38;;;;;;;15.54;46.57;98805.56;5052696;28;20358;-64
2021/05/27 06:21:50;;;;;;;0.10;0.10;;;;;;;15.75;46.23;98803.75;5052569;28;20029;-64
2021/05/27 06:24:16;;;;;;;0.10;0.10;;;;;;;15.98;45.89;98803.63;5052622;28;20486;-64
2021/05/27 06:26:42;;;;;;;0.17;0.17;;;;;;;16.22;45.23;98807.56;5052325;28;20049;-64
2021/05/27 06:29:08;;;;;;;0.10;0.10;;;;;;;16.45;45.09;98814.56;5052619;28;20078;-64
2021/05/27 06:31:33;;;;;;;0.10;0.10;;;;;;;16.79;44.36;98797.41;5052406;28;20025;-63
2021/05/27 06:33:59;;;;;;;0.10;0.10;;;;;;;16.88;44.12;98805.22;5052434;28;20029;-63
2021/05/27 06:36:26;;;;;;;3.92;0.43;;;;;;;16.82;44.30;98799.63;5052328;28;20025;-63
2021/05/27 06:38:51;;;;;;;0.10;0.10;;;;;;;16.76;44.46;98797.16;5052288;28;20076;-62
2021/05/27 06:41:19;;;;;;;0.17;0.15;;;;;;;16.60;44.62;98804.63;5033994;28;20029;-64
2021/05/27 06:43:46;;;;;;;0.17;0.17;;;;;;;16.36;45.44;98794.03;5044152;28;20037;-64
2021/05/27 06:46:13;;;;;;;0.10;0.10;;;;;;;16.08;45.71;98804.47;5045848;28;20090;-62
2021/05/27 06:48:39;;;;;;;0.10;0.10;;;;;;;15.96;45.80;98806.66;5045629;28;20525;-64
2021/05/27 06:51:05;;;;;;;0.15;0.15;;;;;;;16.06;45.58;98812.22;5031650;28;20037;-63
2021/05/27 06:53:31;;;;;;;0.10;0.10;;;;;;;16.15;45.60;98803.38;5033936;28;20070;-63
2021/05/27 06:55:56;;;;;;;0.10;0.10;;;;;;;16.43;44.90;98808.47;5051602;28;20025;-63
2021/05/27 06:58:22;;;;;;;0.20;0.20;;;;;;;16.78;44.26;98800.47;5051241;28;20029;-63
2021/05/27 07:00:48;;;;;;;0.73;0.73;;;;;;;17.08;43.65;98796.09;5051649;28;20029;-64
2021/05/27 07:03:17;;;;;;;0.25;0.25;;;;;;;17.29;43.15;98797.72;5043819;28;20120;-62
2021/05/27 07:05:43;;;;;;;0.10;0.10;;;;;;;17.36;43.13;98797.44;5049557;28;20025;-63
2021/05/27 07:08:09;;;;;;;0.10;0.10;;;;;;;17.26;43.47;98794.69;5051659;28;20486;-63
2021/05/27 07:10:36;;;;;;;0.10;0.10;;;;;;;17.16;43.72;98803.84;5051531;28;20028;-63
2021/05/27 07:13:06;;;;;;;1.25;0.85;;;;;;;17.31;43.50;98800.22;5051665;28;20116;-64
2021/05/27 07:15:33;;;;;;;0.10;0.10;;;;;;;17.74;42.67;98806.25;5050820;28;20036;-63
2021/05/27 07:17:59;;;;;;;0.25;0.25;;;;;;;18.01;42.29;98794.78;5049016;28;20033;-63
2021/05/27 07:20:27;;;;;;;0.30;0.30;;;;;;;18.19;42.16;98789.69;5050993;28;20032;-62
2021/05/27 07:22:53;;;;;;;0.20;0.20;;;;;;;18.19;42.07;98801.63;5051198;28;20539;-63
2021/05/27 07:25:21;;;;;;;0.10;0.10;;;;;;;18.01;42.27;98799.50;5045156;28;20040;-63
2021/05/27 07:28:04;;;;;;;1.10;1.10;;;;;;;17.93;42.63;98792.59;5046383;28;20053;-59
2021/05/27 07:30:32;;;;;;;0.15;0.15;;;;;;;17.97;42.42;98790.91;5049337;28;20035;-59
2021/05/27 07:32:58;;;;;;;0.45;0.45;;;;;;;18.27;42.28;98788.25;5045367;28;20040;-64
2021/05/27 07:35:26;;;;;;;0.10;0.10;;;;;;;18.85;41.24;98794.00;5049870;28;20033;-62
2021/05/27 07:37:53;;;;;;;0.28;0.28;;;;;;;19.31;40.28;98781.66;5050479;28;20036;-65
2021/05/27 07:40:19;;;;;;;0.15;0.15;;;;;;;19.52;40.01;98800.94;5050812;28;20403;-64
2021/05/27 07:42:44;;;;;;;0.65;0.65;;;;;;;;;;5047570;28;20025;-64
2021/05/27 07:45:11;;;;;;;0.35;0.35;;;;;;;19.34;40.57;98786.63;5030985;28;20029;-61
2021/05/27 07:47:37;;;;;;;0.10;0.10;;;;;;;19.20;40.92;98794.84;5049567;28;20036;-62
2021/05/27 07:50:05;;;;;;;0.30;0.30;;;;;;;18.84;41.57;98794.28;5043968;28;20029;-60
2021/05/27 07:52:32;;;;;;;0.63;0.20;;;;;;;18.40;42.36;98804.31;5041130;28;20029;-66
2021/05/27 07:54:57;;;;;;;0.32;0.32;;;;;;;18.16;42.80;98793.88;5047367;28;20125;-67
2021/05/27 07:57:23;;;;;;;0.20;0.20;;;;;;;18.06;42.82;98799.47;5052663;28;20485;-62
2021/05/27 07:59:49;;;;;;;0.10;0.10;;;;;;;17.90;42.93;98807.03;5050638;28;20078;-62
2021/05/27 08:02:15;;;;;;;0.10;0.10;;;;;;;17.84;42.97;98802.59;5060531;28;20044;-62
2021/05/27 08:04:42;;;;;;;0.38;0.38;;;;;;;17.81;42.80;98801.19;5049505;28;20037;-62
2021/05/27 08:07:13;;;;;;;0.10;0.10;;;;;;;17.71;42.92;98795.69;5049848;28;20037;-63
2021/05/27 08:09:39;;;;;;;0.40;0.40;;;;;;;17.57;43.13;98795.44;5057454;28;20029;-61
2021/05/27 08:12:06;;;;;;;0.10;0.10;;;;;;;17.42;43.07;98795.50;5049296;28;20086;-63
2021/05/27 08:14:33;;;;;;;0.22;0.22;;;;;;;17.26;43.20;98800.22;5046189;28;20049;-61
2021/05/27 08:16:59;;;;;;;0.10;0.10;;;;;;;17.05;43.66;98811.34;5055740;28;20041;-63
2021/05/27 08:19:25;;;;;;;0.10;0.10;;;;;;;16.82;43.85;98809.91;5049543;28;20348;-63
2021/05/27 08:21:52;;;;;;;0.10;0.10;;;;;;;16.79;43.89;98805.75;5062948;28;20078;-63
2021/05/27 08:24:18;;;;;;;0.28;0.28;;;;;;;16.94;43.61;98809.66;5047861;28;20117;-64
2021/05/27 08:26:44;;;;;;;0.10;0.10;;;;;;;17.06;42.80;98807.44;5058789;28;20686;-64
2021/05/27 08:29:10;;;;;;;0.50;0.50;;;;;;;17.16;42.69;98812.97;5056965;28;20116;-63
2021/05/27 08:31:39;;;;;;;0.10;0.10;;;;;;;17.31;42.16;98812.16;5046154;28;20029;-63
2021/05/27 08:34:06;;;;;;;0.10;0.10;;;;;;;17.38;42.29;98800.75;5019098;28;20498;-64
2021/05/27 08:36:31;;;;;;;0.10;0.10;;;;;;;17.41;41.96;98805.75;5048938;28;20517;-64
2021/05/27 08:38:57;;;;;;;0.10;0.10;;;;;;;17.29;42.10;98800.50;5044035;28;20044;-65
2021/05/27 08:41:23;;;;;;;0.65;0.65;;;;;;;17.13;42.47;98791.34;5030738;28;20039;-64
2021/05/27 08:43:50;;;;;;;0.75;0.75;;;;;;;17.12;42.36;98792.47;5044519;28;20183;-64
2021/05/27 08:46:16;;;;;;;0.10;0.10;;;;;;;17.14;42.36;98798.56;5047498;28;20033;-65
2021/05/27 08:48:44;;;;;;;0.10;0.10;;;;;;;17.03;42.34;98798.84;5045304;28;20036;-64
2021/05/27 08:51:12;;;;;;;0.35;0.35;;;;;;;16.98;42.55;98800.50;5049159;28;20757;-63
2021/05/27 08:53:38;;;;;;;0.10;0.10;;;;;;;17.08;42.41;98796.91;5045550;28;20124;-64
2021/05/27 08:56:04;;;;;;;2.00;0.30;;;;;;;17.24;41.83;98800.50;5056287;28;20037;-64
2021/05/27 08:58:30;;;;;;;0.10;0.10;;;;;;;17.21;41.68;98797.44;5048652;28;20040;-65
2021/05/27 09:00:56;;;;;;;0.20;0.20;;;;;;;16.97;42.34;98798.88;5045791;28;20043;-64
2021/05/27 09:03:23;;;;;;;0.10;0.10;;;;;;;16.95;42.11;98803.84;5050817;28;20117;-64
2021/05/27 09:06:00;;;;;;;0.15;0.15;;;;;;;17.10;42.00;98803.00;5063228;28;20044;-64
2021/05/27 09:08:29;;;;;;;0.10;0.10;;;;;;;17.20;41.73;98801.34;5057120;28;20029;-65
2021/05/27 09:11:01;;;;;;;0.20;0.20;;;;;;;17.23;41.52;98798.03;5049116;28;20032;-64
2021/05/27 09:13:27;;;;;;;0.20;0.20;;;;;;;17.22;41.46;98802.72;5026806;28;20037;-65
2021/05/27 09:16:03;;;;;;;0.20;0.20;;;;;;;17.20;41.41;98812.44;5047524;28;20029;-65
2021/05/27 09:18:37;;;;;;;0.10;0.10;;;;;;;17.15;41.47;98805.78;5044809;28;20041;-65
2021/05/27 09:21:05;;;;;;;;;;;;;;;17.06;41.55;98806.63;5046566;28;20393;-64
2021/05/27 09:23:31;;;;;;;0.10;0.10;;;;;;;17.02;41.80;98811.03;5052255;28;20019;-65
2021/05/27 09:26:08;;;;;;;0.10;0.10;;;;;;;17.01;41.67;98807.44;5067215;28;20132;-64
2021/05/27 09:28:35;;;;;;;0.10;0.10;;;;;;;16.97;41.78;98803.56;5072062;28;20509;-65
2021/05/27 09:31:05;;;;;;;0.20;0.20;;;;;;;16.96;41.68;98802.75;5035851;28;20068;-65
2021/05/27 09:33:45;;;;;;;0.10;0.10;;;;;;;16.92;41.84;98807.16;5050973;28;20057;-64
2021/05/27 09:36:21;;;;;;;0.10;0.10;;;;;;;16.86;41.77;98810.16;5051591;28;20453;-63
2021/05/27 09:38:53;;;;;;;0.10;0.10;;;;;;;16.68;41.95;98806.00;5048618;28;20090;-65
2021/05/27 09:41:22;;;;;;;0.10;0.10;;;;;;;16.52;42.23;98807.91;5047798;28;20419;-62
2021/05/27 09:43:55;;;;;;;0.77;0.22;;;;;;;16.37;42.21;98812.34;5058453;28;20040;-62
2021/05/27 09:46:23;;;;;;;0.20;0.20;;;;;;;16.32;42.42;98817.03;5051692;28;20494;-63
2021/05/27 09:49:06;;;;;;;0.30;0.30;;;;;;;16.31;42.14;98813.41;5050954;28;20064;-65
2021/05/27 09:51:32;;;;;;;0.10;0.10;;;;;;;16.41;41.93;98816.19;5048027;28;20076;-63
2021/05/27 09:53:59;;;;;;;0.10;0.10;;;;;;;16.57;41.61;98822.63;5044462;28;20509;-64
2021/05/27 09:56:42;;;;;;;0.28;0.28;;;;;;;16.48;41.55;98815.13;5050450;28;20044;-67
2021/05/27 09:59:10;;;;;;;0.17;0.10;;;;;;;16.34;41.72;98807.34;5050452;28;20124;-64
2021/05/27 10:01:36;;;;;;;0.10;0.10;;;;;;;16.15;41.78;98814.47;5049997;28;20076;-65
2021/05/27 10:04:16;;;;;;;0.10;0.10;;;;;;;15.98;42.37;98815.50;5029380;28;20427;-65
2021/05/27 10:06:42;;;;;;;0.10;0.10;;;;;;;15.82;42.42;98828.44;5050354;28;20033;-65
2021/05/27 10:09:10;;;;;;;0.17;0.17;;;;;;;15.72;42.41;98828.34;5050594;28;20135;-65
2021/05/27 10:11:39;;;;;;;0.10;0.10;;;;;;;15.80;42.11;98815.97;5051571;28;20052;-65
2021/05/27 10:14:10;;;;;;;0.10;0.10;;;;;;;15.93;41.99;98824.63;5054291;28;20024;-65
2021/05/27 10:16:39;;;;;;;0.10;0.10;;;;;;;15.93;41.83;98821.88;5033032;28;20033;-66
2021/05/27 10:19:06;;;;;;;0.10;0.10;;;;;;;15.83;41.93;98824.59;5048203;28;20160;-64
2021/05/27 10:21:33;;;;;;;0.30;0.30;;;;;;;15.73;41.87;98828.09;5044809;28;20078;-65
2021/05/27 10:24:00;;;;;;;0.10;0.10;;;;;;;15.74;42.07;98827.00;5047845;28;20134;-66
2021/05/27 10:26:26;;;;;;;0.10;0.10;;;;;;;15.85;41.88;98832.63;5046625;28;20049;-63
2021/05/27 10:28:54;;;;;;;0.20;0.20;;;;;;;15.83;41.68;98834.84;5049200;28;20166;-63
2021/05/27 10:31:23;;;;;;;0.10;0.10;;;;;;;15.73;42.09;98830.84;5063961;28;20067;-65
2021/05/27 10:33:49;;;;;;;0.10;0.10;;;;;;;15.59;42.01;98830.50;5057470;28;20041;-64
2021/05/27 10:36:15;;;;;;;0.20;0.20;;;;;;;15.68;42.05;98833.63;5032802;28;20062;-64
2021/05/27 10:38:49;;;;;;;0.13;0.13;;;;;;;15.88;41.29;98829.31;5050929;28;20048;-63
2021/05/27 10:41:18;;;;;;;0.10;0.10;;;;;;;16.15;40.76;98826.41;5048063;28;20051;-65
2021/05/27 10:44:02;;;;;;;0.10;0.10;;;;;;;16.41;40.48;98827.28;5028542;28;20584;-64
2021/05/27 10:46:32;;;;;;;0.10;0.10;;;;;;;16.50;40.36;98815.69;5047427;28;20033;-63
2021/05/27 10:48:58;;;;;;;0.17;0.17;;;;;;;16.60;40.21;98818.47;5050415;28;20029;-64
2021/05/27 10:51:29;;;;;;;3.90;0.52;;;;;;;16.72;39.99;98812.66;5032913;28;20029;-62
2021/05/27 10:53:57;;;;;;;0.10;0.10;;;;;;;16.93;39.73;98810.75;5046909;28;20094;-64
2021/05/27 10:56:46;;;;;;;0.10;0.10;;;;;;;17.21;39.20;98811.31;5057765;28;20040;-64
2021/05/27 10:59:19;;;;;;;0.10;0.10;;;;;;;17.34;38.99;98811.59;5057625;28;20056;-63
2021/05/27 11:01:44;;;;;;;0.10;0.10;;;;;;;17.49;38.99;98816.28;5049931;28;20033;-66
2021/05/27 11:04:30;;;;;;;0.10;0.10;;;;;;;17.56;39.12;98809.63;5050820;28;20383;-64
2021/05/27 11:07:13;;;;;;;0.10;0.10;;;;;;;17.56;39.13;98802.09;5043716;28;20041;-65
2021/05/27 11:09:40;;;;;;;0.28;0.28;;;;;;;17.59;39.19;98803.50;5029173;28;20041;-64
2021/05/27 11:12:11;;;;;;;6.55;0.73;;;;;;;17.69;38.80;98806.25;5050536;28;20395;-65
2021/05/27 11:14:42;;;;;;;0.20;0.20;;;;;;;17.66;38.98;98793.75;5033096;28;20398;-65
2021/05/27 11:17:20;;;;;;;0.10;0.10;;;;;;;17.60;39.26;98808.75;5043928;28;20033;-63
2021/05/27 11:19:54;;;;;;;0.20;0.20;;;;;;;17.52;39.33;98803.81;5047205;28;20499;-65
2021/05/27 11:25:16;;;;;;;0.40;0.40;;;;;;;17.48;39.59;98792.41;5045787;28;20041;-64
2021/05/27 11:28:17;;;;;;;0.20;0.20;;;;;;;17.36;39.67;98803.00;5033397;28;20056;-64
2021/05/27 11:30:52;;;;;;;0.10;0.10;;;;;;;17.20;39.99;98796.63;5014510;28;20083;-63
2021/05/27 11:33:31;;;;;;;0.10;0.10;;;;;;;17.19;39.89;98800.50;5049745;28;20521;-64
2021/05/27 11:35:59;;;;;;;0.10;0.10;;;;;;;17.28;40.07;98800.78;5021485;28;20087;-64
2021/05/27 11:38:28;;;;;;;0.10;0.10;;;;;;;17.23;40.04;98800.78;5031637;28;20465;-65
2021/05/27 11:41:08;;;;;;;0.90;0.30;;;;;;;17.05;40.28;98796.63;5050028;28;20581;-64
2021/05/27 11:43:46;;;;;;;0.10;0.10;;;;;;;16.93;40.31;98800.53;5027815;28;20041;-65
2021/05/27 11:46:15;;;;;;;10.48;0.43;;;;;;;16.77;40.53;98799.66;5024390;28;20037;-67